createdAt,value
2019-02-11T00:01:14.845Z,44.80
2019-02-11T00:03:42.295Z,44.80
2019-02-11T00:06:11.031Z,44.80
2019-02-11T00:08:38.409Z,44.90
2019-02-11T00:11:05.899Z,45.50
2019-02-11T00:13:33.278Z,44.70
2019-02-11T00:16:00.639Z,44.80
2019-02-11T00:18:30.241Z,44.90
2019-02-11T00:20:57.587Z,44.70
2019-02-11T00:23:25.048Z,46.00
2019-02-11T00:25:52.509Z,44.60
2019-02-11T00:28:19.987Z,44.70
2019-02-11T00:30:47.441Z,44.70
2019-02-11T00:33:15.607Z,44.80
2019-02-11T00:35:43.017Z,44.70
2019-02-11T00:38:10.593Z,44.70
2019-02-11T00:43:05.437Z,44.90
2019-02-11T00:45:32.952Z,45.00
2019-02-11T00:50:47.515Z,45.00
2019-02-11T00:53:15.107Z,45.10
2019-02-11T00:55:42.504Z,45.20
2019-02-11T00:58:09.924Z,45.00
2019-02-11T01:00:37.498Z,44.90
2019-02-11T01:05:32.586Z,44.90
2019-02-11T01:08:00.024Z,45.30
2019-02-11T01:10:27.486Z,45.30
2019-02-11T01:15:22.189Z,45.40
2019-02-11T01:17:49.664Z,45.40
2019-02-11T01:20:17.258Z,45.40
2019-02-11T01:22:44.651Z,45.40
2019-02-11T01:25:12.124Z,45.50
2019-02-11T01:27:39.580Z,45.10
2019-02-11T01:30:09.792Z,45.60
2019-02-11T01:32:37.585Z,45.60
2019-02-11T01:35:07.261Z,45.60
2019-02-11T01:37:34.714Z,45.60
2019-02-11T01:40:02.057Z,45.70
2019-02-11T01:42:29.464Z,45.80
2019-02-11T01:44:56.961Z,45.70
2019-02-11T01:47:24.395Z,45.90
2019-02-11T01:52:20.304Z,45.70
2019-02-11T01:54:47.756Z,46.10
2019-02-11T01:57:15.058Z,46.30
2019-02-11T01:59:42.376Z,46.10
2019-02-11T02:02:09.756Z,46.20
2019-02-11T02:04:37.076Z,46.10
2019-02-11T02:07:04.425Z,46.10
2019-02-11T02:09:31.751Z,46.10
2019-02-11T02:12:00.270Z,46.10
2019-02-11T02:16:54.806Z,46.10
2019-02-11T02:19:22.474Z,46.00
2019-02-11T02:21:49.847Z,46.10
2019-02-11T02:24:17.337Z,46.30
2019-02-11T02:26:44.669Z,46.30
2019-02-11T02:29:12.086Z,46.40
2019-02-11T02:31:39.353Z,46.40
2019-02-11T02:34:06.749Z,46.30
2019-02-11T02:36:34.083Z,46.20
2019-02-11T02:39:01.515Z,46.40
2019-02-11T02:41:28.859Z,46.50
2019-02-11T02:43:56.254Z,46.50
2019-02-11T02:46:23.663Z,46.50
2019-02-11T02:48:51.005Z,46.60
2019-02-11T02:51:18.361Z,46.70
2019-02-11T02:53:45.713Z,46.80
2019-02-11T02:56:13.108Z,46.70
2019-02-11T02:58:40.481Z,46.90
2019-02-11T03:01:07.861Z,46.80
2019-02-11T03:03:35.263Z,46.90
2019-02-11T03:06:02.664Z,47.90
2019-02-11T03:08:30.062Z,47.00
2019-02-11T03:10:57.455Z,47.10
2019-02-11T03:13:24.637Z,47.50
2019-02-11T03:15:52.089Z,47.90
2019-02-11T03:18:19.441Z,48.30
2019-02-11T03:20:46.829Z,48.40
2019-02-11T03:23:14.240Z,48.50
2019-02-11T03:25:41.655Z,48.70
2019-02-11T03:28:09.052Z,48.90
2019-02-11T03:30:36.522Z,49.00
2019-02-11T03:33:03.821Z,49.40
2019-02-11T03:35:31.220Z,49.20
2019-02-11T03:37:58.545Z,49.40
2019-02-11T03:40:25.930Z,49.20
2019-02-11T03:42:53.427Z,49.10
2019-02-11T03:45:20.849Z,49.20
2019-02-11T03:47:48.212Z,49.10
2019-02-11T03:50:15.610Z,49.10
2019-02-11T03:52:42.882Z,48.90
2019-02-11T03:57:37.624Z,48.70
2019-02-11T04:02:32.659Z,48.50
2019-02-11T04:05:00.276Z,48.50
2019-02-11T04:07:27.818Z,48.40
2019-02-11T04:09:55.206Z,48.40
2019-02-11T04:12:22.563Z,48.30
2019-02-11T04:14:49.880Z,48.20
2019-02-11T04:17:17.277Z,48.20
2019-02-11T04:19:45.084Z,48.00
2019-02-11T04:22:12.580Z,48.10
2019-02-11T04:24:39.891Z,48.00
2019-02-11T04:27:07.182Z,48.00
2019-02-11T04:29:34.438Z,47.80
2019-02-11T04:32:01.716Z,47.70
2019-02-11T04:34:29.063Z,47.80
2019-02-11T04:36:56.425Z,47.70
2019-02-11T04:39:23.788Z,47.60
2019-02-11T04:44:18.365Z,47.60
2019-02-11T04:49:14.056Z,47.60
2019-02-11T04:51:41.524Z,47.70
2019-02-11T04:54:08.965Z,47.60
2019-02-11T04:56:36.368Z,47.70
2019-02-11T04:59:03.743Z,47.80
2019-02-11T05:01:31.083Z,47.70
2019-02-11T05:03:58.447Z,47.80
2019-02-11T05:06:25.717Z,47.90
2019-02-11T05:08:53.190Z,47.70
2019-02-11T05:11:20.604Z,47.70
2019-02-11T05:13:48.059Z,47.70
2019-02-11T05:16:15.418Z,47.50
2019-02-11T05:18:42.668Z,47.60
2019-02-11T05:21:10.100Z,47.70
2019-02-11T05:23:37.352Z,47.60
2019-02-11T05:26:04.733Z,47.50
2019-02-11T05:28:32.064Z,47.50
2019-02-11T05:30:59.390Z,47.70
2019-02-11T05:33:26.699Z,47.70
2019-02-11T05:35:59.074Z,47.90
2019-02-11T05:38:26.573Z,47.90
2019-02-11T05:40:56.517Z,48.10
2019-02-11T05:43:24.029Z,48.20
2019-02-11T05:48:18.713Z,48.40
2019-02-11T05:50:45.929Z,48.70
2019-02-11T05:53:13.317Z,48.80
2019-02-11T05:55:41.696Z,48.90
2019-02-11T05:58:09.061Z,49.00
2019-02-11T06:00:36.493Z,49.20
2019-02-11T06:03:03.965Z,49.50
2019-02-11T06:05:32.093Z,49.50
2019-02-11T06:07:59.537Z,49.70
2019-02-11T06:10:27.247Z,49.90
2019-02-11T06:12:55.134Z,50.00
2019-02-11T06:15:22.573Z,50.20
2019-02-11T06:17:49.939Z,50.10
2019-02-11T06:20:19.551Z,50.30
2019-02-11T06:22:47.295Z,50.50
2019-02-11T06:25:14.647Z,50.40
2019-02-11T06:27:42.157Z,50.50
2019-02-11T06:30:10.112Z,50.60
2019-02-11T06:32:37.421Z,50.60
2019-02-11T06:37:32.457Z,50.60
2019-02-11T06:39:59.721Z,50.80
2019-02-11T06:47:30.952Z,51.30
2019-02-11T06:49:58.388Z,51.40
2019-02-11T06:52:25.792Z,51.40
2019-02-11T06:54:53.223Z,51.40
2019-02-11T06:57:20.533Z,51.50
2019-02-11T06:59:47.894Z,51.50
2019-02-11T07:02:15.283Z,51.60
2019-02-11T07:04:42.607Z,51.70
2019-02-11T07:09:39.770Z,51.80
2019-02-11T07:12:07.168Z,51.80
2019-02-11T07:17:26.079Z,52.00
2019-02-11T07:22:25.632Z,52.00
2019-02-11T07:29:56.400Z,52.30
2019-02-11T07:34:54.594Z,52.30
2019-02-11T07:37:22.263Z,52.40
2019-02-11T07:42:40.458Z,52.40
2019-02-11T07:45:30.335Z,52.40
2019-02-11T07:47:58.182Z,52.50
2019-02-11T07:50:25.507Z,52.50
2019-02-11T07:52:52.848Z,52.60
2019-02-11T07:55:20.228Z,52.70
2019-02-11T07:57:47.676Z,52.70
2019-02-11T08:00:15.089Z,52.70
2019-02-11T08:02:42.523Z,52.80
2019-02-11T08:05:10.009Z,52.70
2019-02-11T08:07:37.309Z,52.70
2019-02-11T08:10:04.690Z,52.70
2019-02-11T08:17:26.930Z,52.50
2019-02-11T08:19:55.694Z,52.60
2019-02-11T08:22:23.088Z,52.50
2019-02-11T08:32:13.941Z,52.70
2019-02-11T08:37:08.719Z,52.80
2019-02-11T08:39:36.216Z,52.70
2019-02-11T08:42:03.625Z,52.70
2019-02-11T08:44:30.880Z,52.80
2019-02-11T08:46:58.275Z,52.70
2019-02-11T08:51:52.874Z,52.90
2019-02-11T08:54:20.387Z,53.20
2019-02-11T08:56:47.732Z,53.30
2019-02-11T09:01:42.557Z,53.00
2019-02-11T09:04:09.869Z,53.10
2019-02-11T09:06:37.223Z,53.00
2019-02-11T09:09:05.315Z,53.10
2019-02-11T09:11:32.634Z,53.10
2019-02-11T09:14:00.026Z,53.20
2019-02-11T09:16:27.407Z,53.20
2019-02-11T09:21:22.321Z,53.40
2019-02-11T09:23:49.760Z,53.40
2019-02-11T09:26:17.093Z,53.30
2019-02-11T09:28:44.413Z,53.30
2019-02-11T09:31:11.728Z,53.60
2019-02-11T09:38:33.825Z,53.30
2019-02-11T09:46:03.576Z,53.30
2019-02-11T09:48:25.008Z,53.10
2019-02-11T09:50:52.530Z,53.20
2019-02-11T09:53:19.915Z,53.30
2019-02-11T09:55:47.330Z,53.30
2019-02-11T09:58:14.753Z,53.30
2019-02-11T10:00:42.245Z,53.20
2019-02-11T10:03:09.609Z,53.20
2019-02-11T10:08:04.406Z,53.30
2019-02-11T10:10:34.733Z,53.30
2019-02-11T10:15:29.801Z,53.30
2019-02-11T10:22:53.755Z,53.40
2019-02-11T10:25:22.725Z,53.30
2019-02-11T10:32:45.332Z,53.30
2019-02-11T10:40:10.217Z,53.10
2019-02-11T10:42:37.626Z,53.10
2019-02-11T10:45:05.969Z,53.10
2019-02-11T10:47:33.340Z,53.20
2019-02-11T10:50:00.868Z,53.20
2019-02-11T10:52:28.248Z,53.10
2019-02-11T10:54:55.748Z,53.10
2019-02-11T10:57:24.476Z,53.00
2019-02-11T10:59:51.839Z,53.00
2019-02-11T11:04:46.658Z,53.00
2019-02-11T11:07:14.230Z,52.90
2019-02-11T11:09:42.858Z,53.00
2019-02-11T11:12:10.244Z,52.90
2019-02-11T11:17:06.662Z,53.00
2019-02-11T11:19:34.164Z,53.00
2019-02-11T11:22:01.633Z,53.00
2019-02-11T11:24:29.068Z,53.00
2019-02-11T11:26:56.792Z,53.00
2019-02-11T11:29:24.334Z,53.10
2019-02-11T11:34:38.633Z,53.00
2019-02-11T11:37:05.947Z,53.00
2019-02-11T11:39:55.862Z,53.10
2019-02-11T11:42:23.350Z,53.10
2019-02-11T11:44:50.729Z,53.10
2019-02-11T11:47:18.502Z,53.30
2019-02-11T11:49:45.784Z,53.30
2019-02-11T11:52:15.988Z,53.30
2019-02-11T11:57:10.570Z,53.40
2019-02-11T11:59:39.260Z,53.40
2019-02-11T12:02:26.382Z,53.40
2019-02-11T12:04:53.793Z,53.20
2019-02-11T12:07:23.754Z,53.30
2019-02-11T12:09:51.601Z,53.40
2019-02-11T12:12:19.021Z,53.50
2019-02-11T12:17:13.806Z,53.30
2019-02-11T12:19:41.258Z,53.40
2019-02-11T12:24:55.740Z,53.50
2019-02-11T12:27:23.240Z,53.60
2019-02-11T12:29:50.699Z,53.50
2019-02-11T12:32:18.115Z,53.60
2019-02-11T12:34:45.611Z,53.60
2019-02-11T12:37:13.065Z,53.70
2019-02-11T12:39:40.499Z,53.60
2019-02-11T12:44:38.424Z,53.70
2019-02-11T12:47:13.848Z,53.70
2019-02-11T12:49:35.027Z,53.60
2019-02-11T12:52:02.681Z,53.60
2019-02-11T12:54:30.085Z,53.60
2019-02-11T12:59:24.879Z,53.60
2019-02-11T13:01:52.321Z,53.60
2019-02-11T13:04:22.311Z,53.80
2019-02-11T13:06:51.098Z,53.90
2019-02-11T13:11:47.648Z,53.90
2019-02-11T13:14:15.133Z,53.90
2019-02-11T13:21:37.818Z,53.70
2019-02-11T13:24:05.244Z,53.60
2019-02-11T13:26:32.659Z,53.70
2019-02-11T13:29:00.146Z,53.70
2019-02-11T13:31:27.663Z,53.60
2019-02-11T13:33:56.238Z,53.60
2019-02-11T13:38:50.951Z,53.60
2019-02-11T13:41:37.941Z,53.70
2019-02-11T13:44:05.337Z,53.60
2019-02-11T13:46:35.023Z,53.70
2019-02-11T13:49:02.507Z,53.70
2019-02-11T13:51:29.943Z,53.60
2019-02-11T13:56:24.774Z,53.60
2019-02-11T13:58:52.608Z,53.80
2019-02-11T14:03:47.390Z,53.90
2019-02-11T14:06:14.906Z,53.90
2019-02-11T14:08:42.324Z,53.90
2019-02-11T14:11:09.736Z,53.90
2019-02-11T14:16:06.380Z,53.90
2019-02-11T14:26:20.653Z,54.00
2019-02-11T14:28:49.578Z,53.90
2019-02-11T14:31:17.398Z,53.90
2019-02-11T14:33:44.730Z,53.90
2019-02-11T14:38:39.572Z,53.90
2019-02-11T14:41:07.016Z,53.70
2019-02-11T14:46:01.737Z,53.50
2019-02-11T14:48:29.572Z,53.40
2019-02-11T14:50:57.319Z,53.20
2019-02-11T14:53:24.708Z,53.20
2019-02-11T14:55:52.095Z,53.10
2019-02-11T15:00:46.802Z,53.10
2019-02-11T15:03:14.200Z,53.00
2019-02-11T15:05:41.514Z,53.00
2019-02-11T15:08:08.914Z,53.00
2019-02-11T15:10:36.493Z,52.90
2019-02-11T15:15:31.083Z,52.70
2019-02-11T15:17:58.493Z,52.80
2019-02-11T15:22:53.136Z,52.70
2019-02-11T15:27:47.872Z,52.60
2019-02-11T15:30:17.028Z,52.50
2019-02-11T15:32:44.451Z,52.60
2019-02-11T15:35:12.222Z,52.50
2019-02-11T15:37:39.722Z,52.40
2019-02-11T15:40:09.987Z,52.30
2019-02-11T15:42:37.422Z,52.10
2019-02-11T15:47:32.451Z,52.20
2019-02-11T15:52:27.136Z,52.10
2019-02-11T15:54:54.534Z,52.20
2019-02-11T15:57:21.793Z,52.10
2019-02-11T15:59:49.520Z,52.10
2019-02-11T16:07:11.864Z,51.90
2019-02-11T16:09:39.271Z,51.90
2019-02-11T16:14:34.198Z,51.90
2019-02-11T16:17:01.648Z,51.90
2019-02-11T16:24:36.788Z,51.90
2019-02-11T16:27:04.283Z,52.00
2019-02-11T16:29:31.527Z,52.00
2019-02-11T16:32:00.768Z,51.90
2019-02-11T16:34:28.840Z,51.90
2019-02-11T16:36:56.510Z,51.90
2019-02-11T16:39:24.017Z,51.80
2019-02-11T16:44:19.020Z,51.70
2019-02-11T16:46:46.386Z,51.60
2019-02-11T16:49:15.034Z,51.60
2019-02-11T16:54:09.674Z,51.50
2019-02-11T16:56:37.117Z,51.50
2019-02-11T16:59:04.603Z,51.50
2019-02-11T17:03:59.342Z,51.60
2019-02-11T17:06:27.118Z,51.60
2019-02-11T17:08:54.835Z,51.60
2019-02-11T17:11:22.361Z,51.60
2019-02-11T17:16:27.418Z,51.70
2019-02-11T17:18:55.012Z,51.60
2019-02-11T17:21:22.606Z,51.60
2019-02-11T17:26:21.125Z,51.50
2019-02-11T17:28:48.730Z,51.50
2019-02-11T17:31:17.232Z,51.50
2019-02-11T17:33:44.685Z,51.50
2019-02-11T17:36:12.141Z,51.40
2019-02-11T17:38:39.657Z,51.40
2019-02-11T17:43:34.645Z,51.40
2019-02-11T17:46:02.077Z,51.50
2019-02-11T17:48:29.815Z,51.50
2019-02-11T17:50:57.244Z,51.50
2019-02-11T17:53:24.711Z,51.50
2019-02-11T17:55:52.111Z,51.60
2019-02-11T17:58:19.403Z,51.60
2019-02-11T18:00:50.611Z,51.60
2019-02-11T18:05:45.653Z,51.60
2019-02-11T18:08:13.131Z,51.50
2019-02-11T18:10:40.507Z,51.60
2019-02-11T18:13:07.888Z,51.60
2019-02-11T18:15:36.031Z,51.50
2019-02-11T18:18:03.365Z,51.50
2019-02-11T18:20:30.805Z,51.50
2019-02-11T18:25:25.511Z,51.40
2019-02-11T18:27:52.906Z,51.30
2019-02-11T18:30:41.476Z,51.40
2019-02-11T18:38:03.553Z,51.50
2019-02-11T18:40:31.496Z,51.50
2019-02-11T18:42:58.950Z,51.70
2019-02-11T18:47:57.028Z,51.80
2019-02-11T18:55:22.919Z,51.90
2019-02-11T18:57:50.342Z,52.00
2019-02-11T19:02:45.780Z,52.10
2019-02-11T19:07:41.358Z,52.20
2019-02-11T19:10:09.891Z,52.20
2019-02-11T19:12:37.356Z,52.20
2019-02-11T19:15:26.028Z,52.30
2019-02-11T19:17:53.366Z,52.20
2019-02-11T19:20:20.825Z,52.40
2019-02-11T19:25:15.644Z,52.50
2019-02-11T19:27:43.039Z,52.60
2019-02-11T19:30:17.563Z,52.60
2019-02-11T19:35:12.275Z,52.60
2019-02-11T19:37:40.548Z,52.60
2019-02-11T19:42:35.910Z,52.50
2019-02-11T19:45:03.940Z,52.60
2019-02-11T19:47:31.556Z,52.60
2019-02-11T19:49:58.968Z,52.70
2019-02-11T19:54:56.526Z,52.80
2019-02-11T19:57:25.412Z,52.90
2019-02-11T20:02:20.414Z,53.00
2019-02-11T20:04:48.059Z,53.20
2019-02-11T20:07:15.481Z,53.20
2019-02-11T20:09:43.084Z,53.20
2019-02-11T20:12:11.858Z,53.20
2019-02-11T20:17:06.866Z,53.20
2019-02-11T20:19:34.397Z,53.20
2019-02-11T20:24:29.374Z,53.40
2019-02-11T20:29:24.385Z,53.40
2019-02-11T20:31:54.220Z,53.40
2019-02-11T20:34:21.619Z,53.50
2019-02-11T20:36:49.134Z,53.60
2019-02-11T20:41:44.060Z,53.60
2019-02-11T20:44:11.885Z,53.60
2019-02-11T20:51:44.483Z,53.60
2019-02-11T20:54:11.949Z,53.60
2019-02-11T20:59:07.323Z,53.60
2019-02-11T21:04:04.274Z,53.50
2019-02-11T21:06:31.703Z,53.40
2019-02-11T21:08:59.203Z,53.40
2019-02-11T21:13:54.019Z,53.10
2019-02-11T21:16:21.534Z,53.10
2019-02-11T21:21:16.437Z,53.20
2019-02-11T21:23:46.413Z,53.20
2019-02-11T21:26:13.839Z,53.20
2019-02-11T21:28:41.305Z,53.20
2019-02-11T21:31:08.736Z,53.00
2019-02-11T21:33:36.227Z,53.00
2019-02-11T21:36:06.117Z,53.10
2019-02-11T21:41:00.941Z,53.20
2019-02-11T21:45:55.764Z,53.60
2019-02-11T21:48:23.226Z,53.60
2019-02-11T21:53:19.449Z,53.50
2019-02-11T21:58:14.335Z,53.80
2019-02-11T22:00:41.765Z,53.70
2019-02-11T22:03:09.110Z,53.90
2019-02-11T22:05:36.498Z,53.90
2019-02-11T22:08:03.862Z,54.00
2019-02-11T22:10:31.372Z,54.10
2019-02-11T22:12:58.761Z,54.00
2019-02-11T22:15:29.163Z,53.90
2019-02-11T22:17:56.704Z,53.90
2019-02-11T22:20:24.148Z,54.00
2019-02-11T22:25:18.896Z,53.80
2019-02-11T22:27:46.444Z,53.80
2019-02-11T22:30:15.936Z,53.80
2019-02-11T22:35:10.888Z,53.70
2019-02-11T22:37:40.107Z,53.70
2019-02-11T22:40:08.170Z,53.70
2019-02-11T22:45:03.024Z,53.60
2019-02-11T22:47:30.480Z,53.60
2019-02-11T22:49:57.860Z,53.50
2019-02-11T22:54:52.538Z,53.60
2019-02-11T22:57:19.922Z,53.60
2019-02-11T22:59:47.266Z,53.70
2019-02-11T23:02:14.690Z,53.70
2019-02-11T23:04:42.162Z,53.80
2019-02-11T23:07:09.428Z,53.80
2019-02-11T23:12:04.072Z,53.90
2019-02-11T23:14:31.401Z,54.00
2019-02-11T23:16:58.832Z,54.10
2019-02-11T23:19:26.215Z,54.10
2019-02-11T23:21:53.587Z,54.10
2019-02-11T23:24:20.842Z,54.10
2019-02-11T23:26:48.168Z,54.20
2019-02-11T23:29:15.659Z,54.10
2019-02-11T23:31:43.012Z,54.00
2019-02-11T23:34:10.266Z,53.90
2019-02-11T23:36:37.569Z,53.80
2019-02-11T23:39:07.283Z,53.80
2019-02-11T23:41:34.638Z,53.70
2019-02-11T23:44:02.010Z,53.70
2019-02-11T23:51:24.142Z,53.60
2019-02-11T23:56:18.711Z,53.60
